AEA59PJ EHAM-LEMD
Flight info
| Callsign | AEA59PJ |
|---|---|
| Flight time | 2h 9m |
| Altitude | 39000 |
| Route | WOODY N872 MEDIL DCT KOVIN DCT DUCRA DCT RESMI DCT DEKOD DCT DISAK DCT ARKIP DCT ARNAV DCT LMG DCT UVELI DCT OSMOB DCT ARVID DCT PPN DCT NOLSA DCT ALEPO DCT VASUM N10 BANEV |
| Aircraft | B38M/M-SDE1FGHILORVWXY/HB1 |
Departure
| Time | 2026-05-05 09:21 |
|---|---|
| Airport | Amsterdam Airport Schiphol (EHAM) |
Arrival
| Time | 2026-05-05 11:30 |
|---|---|
| Airport | Adolfo Suárez Madrid–Barajas Airport (LEMD) |
| Time | Latitude | Longitude | Altitude | Speed | Heading |
|---|---|---|---|---|---|
| 2026-05-05 08:45 | 52.30744 | 4.76896 | 1 ft | 0 kts | 51° |
| 2026-05-05 09:04 | 52.30738 | 4.76884 | 1 ft | 3 kts | 51° |
| 2026-05-05 09:04 | 52.30723 | 4.76852 | 1 ft | 3 kts | 59° |
| 2026-05-05 09:05 | 52.30718 | 4.76824 | 1 ft | 3 kts | 84° |
| 2026-05-05 09:05 | 52.30717 | 4.76795 | 2 ft | 2 kts | 86° |
| 2026-05-05 09:05 | 52.30716 | 4.76778 | 1 ft | 2 kts | 86° |
| 2026-05-05 09:05 | 52.30715 | 4.76766 | 1 ft | 0 kts | 85° |
| 2026-05-05 09:11 | 52.30716 | 4.76772 | 1 ft | 2 kts | 85° |
| 2026-05-05 09:11 | 52.30712 | 4.76804 | 1 ft | 4 kts | 114° |
| 2026-05-05 09:11 | 52.30685 | 4.76842 | 1 ft | 7 kts | 150° |
| 2026-05-05 09:11 | 52.30659 | 4.76908 | 1 ft | 8 kts | 96° |
| 2026-05-05 09:12 | 52.30637 | 4.76998 | 1 ft | 10 kts | 146° |
| 2026-05-05 09:12 | 52.30576 | 4.77060 | 1 ft | 8 kts | 148° |
| 2026-05-05 09:12 | 52.30518 | 4.77084 | 1 ft | 9 kts | 208° |
| 2026-05-05 09:12 | 52.30475 | 4.76989 | 1 ft | 12 kts | 238° |
| 2026-05-05 09:13 | 52.30429 | 4.76868 | 1 ft | 14 kts | 238° |
| 2026-05-05 09:13 | 52.30376 | 4.76728 | 1 ft | 15 kts | 237° |
| 2026-05-05 09:13 | 52.30314 | 4.76571 | 1 ft | 17 kts | 237° |
| 2026-05-05 09:13 | 52.30249 | 4.76404 | 1 ft | 16 kts | 238° |
| 2026-05-05 09:14 | 52.30185 | 4.76237 | 1 ft | 18 kts | 238° |
| 2026-05-05 09:14 | 52.30116 | 4.76055 | 1 ft | 20 kts | 238° |
| 2026-05-05 09:14 | 52.30038 | 4.75852 | 1 ft | 21 kts | 237° |
| 2026-05-05 09:14 | 52.29961 | 4.75653 | 1 ft | 17 kts | 237° |
| 2026-05-05 09:15 | 52.29893 | 4.75478 | 1 ft | 18 kts | 238° |
| 2026-05-05 09:15 | 52.29835 | 4.75315 | 1 ft | 15 kts | 251° |
| 2026-05-05 09:15 | 52.29865 | 4.75150 | 1 ft | 17 kts | 311° |
| 2026-05-05 09:15 | 52.29947 | 4.74999 | 1 ft | 19 kts | 311° |
| 2026-05-05 09:16 | 52.30037 | 4.74833 | 2 ft | 20 kts | 311° |
| 2026-05-05 09:16 | 52.30126 | 4.74669 | 11 ft | 17 kts | 311° |
| 2026-05-05 09:16 | 52.30201 | 4.74529 | 12 ft | 17 kts | 311° |
| 2026-05-05 09:16 | 52.30285 | 4.74375 | 11 ft | 20 kts | 311° |
| 2026-05-05 09:17 | 52.30363 | 4.74230 | 2 ft | 14 kts | 311° |
| 2026-05-05 09:17 | 52.30418 | 4.74110 | 1 ft | 12 kts | 297° |
| 2026-05-05 09:17 | 52.30421 | 4.74043 | 1 ft | 0 kts | 254° |
| 2026-05-05 09:18 | 52.30417 | 4.74018 | 1 ft | 6 kts | 254° |
| 2026-05-05 09:19 | 52.30407 | 4.73905 | 1 ft | 13 kts | 272° |
| 2026-05-05 09:19 | 52.30422 | 4.73781 | -1 ft | 10 kts | 317° |
| 2026-05-05 09:19 | 52.30457 | 4.73764 | 0 ft | 0 kts | 2° |
| 2026-05-05 09:20 | 52.30465 | 4.73765 | 0 ft | 3 kts | 2° |
| 2026-05-05 09:20 | 52.30599 | 4.73773 | -1 ft | 55 kts | 2° |
| 2026-05-05 09:20 | 52.31264 | 4.73836 | 0 ft | 134 kts | 3° |
| 2026-05-05 09:20 | 52.32404 | 4.73946 | 148 ft | 188 kts | 4° |
| 2026-05-05 09:21 | 52.33764 | 4.74080 | 1186 ft | 191 kts | 6° |
| 2026-05-05 09:21 | 52.35131 | 4.74472 | 2151 ft | 206 kts | 21° |
| 2026-05-05 09:21 | 52.36399 | 4.75598 | 2772 ft | 212 kts | 43° |
| 2026-05-05 09:21 | 52.37204 | 4.77632 | 3415 ft | 221 kts | 68° |
| 2026-05-05 09:22 | 52.37353 | 4.80233 | 3809 ft | 242 kts | 99° |
| 2026-05-05 09:22 | 52.36606 | 4.82683 | 4691 ft | 248 kts | 129° |
| 2026-05-05 09:22 | 52.35177 | 4.84308 | 5289 ft | 256 kts | 159° |
| 2026-05-05 09:22 | 52.33425 | 4.84817 | 5617 ft | 256 kts | 179° |
| 2026-05-05 09:23 | 52.31654 | 4.84832 | 5791 ft | 255 kts | 180° |
| 2026-05-05 09:23 | 52.29880 | 4.84828 | 6586 ft | 252 kts | 181° |
| 2026-05-05 09:23 | 52.28123 | 4.84813 | 7379 ft | 255 kts | 181° |
| 2026-05-05 09:23 | 52.26329 | 4.84788 | 8113 ft | 259 kts | 181° |
| 2026-05-05 09:24 | 52.24541 | 4.84757 | 8859 ft | 263 kts | 181° |
| 2026-05-05 09:24 | 52.22700 | 4.84720 | 9590 ft | 267 kts | 182° |
| 2026-05-05 09:24 | 52.20816 | 4.84682 | 10264 ft | 272 kts | 182° |
| 2026-05-05 09:24 | 52.18901 | 4.84643 | 10826 ft | 283 kts | 182° |
| 2026-05-05 09:25 | 52.16862 | 4.84601 | 11160 ft | 303 kts | 182° |
| 2026-05-05 09:25 | 52.14687 | 4.84558 | 11472 ft | 323 kts | 181° |
| 2026-05-05 09:25 | 52.12370 | 4.84509 | 11849 ft | 339 kts | 181° |
| 2026-05-05 09:25 | 52.09961 | 4.84460 | 12343 ft | 351 kts | 181° |
| 2026-05-05 09:26 | 52.07515 | 4.84410 | 13147 ft | 353 kts | 181° |
| 2026-05-05 09:26 | 52.05054 | 4.84360 | 13754 ft | 359 kts | 181° |
| 2026-05-05 09:26 | 52.02556 | 4.84148 | 13858 ft | 358 kts | 192° |
| 2026-05-05 09:26 | 52.00235 | 4.82776 | 13918 ft | 356 kts | 207° |
| 2026-05-05 09:27 | 51.97991 | 4.81050 | 13922 ft | 357 kts | 206° |
| 2026-05-05 09:27 | 51.95747 | 4.79320 | 13925 ft | 357 kts | 206° |
| 2026-05-05 09:27 | 51.93538 | 4.77603 | 13921 ft | 358 kts | 206° |
| 2026-05-05 09:27 | 51.91291 | 4.75848 | 13925 ft | 359 kts | 206° |
| 2026-05-05 09:28 | 51.89036 | 4.74086 | 13925 ft | 360 kts | 206° |
| 2026-05-05 09:28 | 51.86784 | 4.72328 | 13930 ft | 359 kts | 206° |
| 2026-05-05 09:28 | 51.84525 | 4.70565 | 13927 ft | 359 kts | 206° |
| 2026-05-05 09:28 | 51.82285 | 4.68819 | 13928 ft | 360 kts | 206° |
| 2026-05-05 09:29 | 51.80026 | 4.67060 | 13937 ft | 360 kts | 206° |
| 2026-05-05 09:29 | 51.77769 | 4.65305 | 13932 ft | 359 kts | 206° |
| 2026-05-05 09:29 | 51.75517 | 4.63555 | 13935 ft | 359 kts | 206° |
| 2026-05-05 09:29 | 51.73264 | 4.61806 | 13928 ft | 359 kts | 206° |
| 2026-05-05 09:30 | 51.71038 | 4.60080 | 13930 ft | 360 kts | 205° |
| 2026-05-05 09:30 | 51.68774 | 4.58327 | 13930 ft | 361 kts | 205° |
| 2026-05-05 09:30 | 51.66511 | 4.56578 | 13929 ft | 361 kts | 205° |
| 2026-05-05 09:30 | 51.64245 | 4.54826 | 13932 ft | 361 kts | 205° |
| 2026-05-05 09:31 | 51.61981 | 4.53079 | 13928 ft | 361 kts | 205° |
| 2026-05-05 09:31 | 51.59725 | 4.51340 | 13932 ft | 361 kts | 205° |
| 2026-05-05 09:31 | 51.57454 | 4.49591 | 14096 ft | 362 kts | 205° |
| 2026-05-05 09:31 | 51.55181 | 4.47844 | 14876 ft | 362 kts | 205° |
| 2026-05-05 09:32 | 51.52898 | 4.46089 | 15660 ft | 364 kts | 205° |
| 2026-05-05 09:32 | 51.50604 | 4.44328 | 16437 ft | 366 kts | 205° |
| 2026-05-05 09:32 | 51.48324 | 4.42580 | 17163 ft | 369 kts | 204° |
| 2026-05-05 09:32 | 51.45998 | 4.40799 | 17875 ft | 371 kts | 204° |
| 2026-05-05 09:33 | 51.43662 | 4.39013 | 18587 ft | 372 kts | 204° |
| 2026-05-05 09:33 | 51.41314 | 4.37217 | 19177 ft | 376 kts | 204° |
| 2026-05-05 09:33 | 51.38935 | 4.35406 | 19733 ft | 380 kts | 204° |
| 2026-05-05 09:33 | 51.36559 | 4.33599 | 20375 ft | 380 kts | 204° |
| 2026-05-05 09:34 | 51.34162 | 4.31778 | 20990 ft | 382 kts | 205° |
| 2026-05-05 09:34 | 51.31745 | 4.29941 | 21520 ft | 386 kts | 205° |
| 2026-05-05 09:34 | 51.29306 | 4.28087 | 22015 ft | 391 kts | 205° |
| 2026-05-05 09:34 | 51.26872 | 4.26239 | 22652 ft | 391 kts | 205° |
| 2026-05-05 09:35 | 51.24406 | 4.24369 | 23222 ft | 394 kts | 205° |
| 2026-05-05 09:35 | 51.19402 | 4.20580 | 24066 ft | 402 kts | 205° |
| 2026-05-05 09:35 | 51.16848 | 4.18672 | 24613 ft | 402 kts | 202° |
| 2026-05-05 09:36 | 51.14216 | 4.17236 | 25061 ft | 404 kts | 198° |
| 2026-05-05 09:36 | 51.11537 | 4.15803 | 25418 ft | 408 kts | 199° |
| 2026-05-05 09:36 | 51.08843 | 4.14332 | 25881 ft | 409 kts | 199° |
| 2026-05-05 09:36 | 51.06146 | 4.12842 | 26338 ft | 411 kts | 199° |
| 2026-05-05 09:37 | 51.03441 | 4.11342 | 26760 ft | 413 kts | 199° |
| 2026-05-05 09:37 | 51.00719 | 4.09832 | 27134 ft | 416 kts | 199° |
| 2026-05-05 09:37 | 50.97984 | 4.08316 | 27566 ft | 417 kts | 200° |
| 2026-05-05 09:37 | 50.95239 | 4.06796 | 27976 ft | 419 kts | 200° |
| 2026-05-05 09:38 | 50.92470 | 4.05264 | 28353 ft | 422 kts | 200° |
| 2026-05-05 09:38 | 50.89704 | 4.03736 | 28738 ft | 424 kts | 200° |
| 2026-05-05 09:38 | 50.86947 | 4.02063 | 29129 ft | 425 kts | 203° |
| 2026-05-05 09:38 | 50.84202 | 4.00278 | 29511 ft | 427 kts | 202° |
| 2026-05-05 09:39 | 50.81440 | 3.98507 | 29893 ft | 429 kts | 202° |
| 2026-05-05 09:39 | 50.78666 | 3.96740 | 30231 ft | 430 kts | 202° |
| 2026-05-05 09:39 | 50.75924 | 3.94998 | 30590 ft | 430 kts | 202° |
| 2026-05-05 09:39 | 50.73141 | 3.93232 | 30922 ft | 432 kts | 202° |
| 2026-05-05 09:40 | 50.70358 | 3.91469 | 31345 ft | 430 kts | 202° |
| 2026-05-05 09:40 | 50.67602 | 3.89726 | 31839 ft | 427 kts | 202° |
| 2026-05-05 09:40 | 50.64851 | 3.87988 | 32340 ft | 424 kts | 202° |
| 2026-05-05 09:40 | 50.62117 | 3.86263 | 32838 ft | 421 kts | 202° |
| 2026-05-05 09:41 | 50.59409 | 3.84556 | 33334 ft | 418 kts | 202° |
| 2026-05-05 09:41 | 50.56736 | 3.82796 | 33810 ft | 415 kts | 203° |
| 2026-05-05 09:41 | 50.54094 | 3.80977 | 34212 ft | 412 kts | 203° |
| 2026-05-05 09:41 | 50.51458 | 3.79177 | 34469 ft | 413 kts | 203° |
| 2026-05-05 09:42 | 50.48813 | 3.77379 | 34718 ft | 414 kts | 203° |
| 2026-05-05 09:42 | 50.46202 | 3.75607 | 34965 ft | 415 kts | 203° |
| 2026-05-05 09:42 | 50.43518 | 3.73788 | 35221 ft | 416 kts | 203° |
| 2026-05-05 09:42 | 50.40883 | 3.72004 | 35454 ft | 417 kts | 203° |
| 2026-05-05 09:43 | 50.38217 | 3.70202 | 35701 ft | 418 kts | 203° |
| 2026-05-05 09:43 | 50.35538 | 3.68394 | 35936 ft | 419 kts | 203° |
| 2026-05-05 09:43 | 50.32856 | 3.66578 | 36081 ft | 422 kts | 204° |
| 2026-05-05 09:43 | 50.30159 | 3.64755 | 36321 ft | 422 kts | 204° |
| 2026-05-05 09:44 | 50.27458 | 3.62930 | 36537 ft | 423 kts | 204° |
| 2026-05-05 09:44 | 50.24748 | 3.61102 | 36775 ft | 423 kts | 204° |
| 2026-05-05 09:44 | 50.22051 | 3.59286 | 36984 ft | 424 kts | 204° |
| 2026-05-05 09:44 | 50.19339 | 3.57461 | 37199 ft | 425 kts | 204° |
| 2026-05-05 09:45 | 50.16620 | 3.55634 | 37397 ft | 425 kts | 204° |
| 2026-05-05 09:45 | 50.13901 | 3.53809 | 37601 ft | 426 kts | 203° |
| 2026-05-05 09:45 | 50.11173 | 3.51980 | 37811 ft | 426 kts | 203° |
| 2026-05-05 09:45 | 50.08452 | 3.50159 | 38009 ft | 426 kts | 203° |
| 2026-05-05 09:46 | 50.05764 | 3.48361 | 38191 ft | 426 kts | 203° |
| 2026-05-05 09:46 | 50.03033 | 3.46537 | 38374 ft | 427 kts | 203° |
| 2026-05-05 09:46 | 50.00305 | 3.44717 | 38546 ft | 427 kts | 203° |
| 2026-05-05 09:46 | 49.97583 | 3.42904 | 38681 ft | 427 kts | 203° |
| 2026-05-05 09:47 | 49.94854 | 3.41088 | 38812 ft | 428 kts | 203° |
| 2026-05-05 09:47 | 49.92111 | 3.39266 | 38891 ft | 428 kts | 203° |
| 2026-05-05 09:47 | 49.86630 | 3.35630 | 38886 ft | 428 kts | 203° |
| 2026-05-05 09:48 | 49.81146 | 3.32002 | 38882 ft | 428 kts | 203° |
| 2026-05-05 09:48 | 49.75672 | 3.28388 | 38885 ft | 428 kts | 203° |
| 2026-05-05 09:49 | 49.70217 | 3.24797 | 38878 ft | 428 kts | 203° |
| 2026-05-05 09:49 | 49.64720 | 3.21186 | 38879 ft | 429 kts | 203° |
| 2026-05-05 09:50 | 49.59219 | 3.17582 | 38876 ft | 429 kts | 203° |
| 2026-05-05 09:50 | 49.53714 | 3.13983 | 38875 ft | 429 kts | 203° |
| 2026-05-05 09:51 | 49.48258 | 3.10270 | 38855 ft | 429 kts | 211° |
| 2026-05-05 09:51 | 49.44125 | 3.06063 | 38859 ft | 430 kts | 212° |
| 2026-05-05 09:52 | 49.38318 | 3.00197 | 38877 ft | 430 kts | 213° |
| 2026-05-05 09:52 | 49.34136 | 2.95961 | 38875 ft | 429 kts | 213° |
| 2026-05-05 09:53 | 49.29155 | 2.90927 | 38876 ft | 430 kts | 213° |
| 2026-05-05 09:53 | 49.24347 | 2.86076 | 38859 ft | 429 kts | 212° |
| 2026-05-05 09:54 | 49.19335 | 2.81033 | 38865 ft | 432 kts | 212° |
| 2026-05-05 09:54 | 49.14319 | 2.75999 | 38859 ft | 431 kts | 212° |
| 2026-05-05 09:55 | 49.09304 | 2.70978 | 38858 ft | 431 kts | 212° |
| 2026-05-05 09:55 | 49.04282 | 2.65962 | 38852 ft | 432 kts | 212° |
| 2026-05-05 09:56 | 48.99267 | 2.60964 | 38864 ft | 436 kts | 212° |
| 2026-05-05 09:56 | 48.94172 | 2.55902 | 38877 ft | 437 kts | 212° |
| 2026-05-05 09:57 | 48.89090 | 2.50862 | 38846 ft | 436 kts | 212° |
| 2026-05-05 09:57 | 48.83994 | 2.45822 | 38858 ft | 437 kts | 212° |
| 2026-05-05 09:58 | 48.78892 | 2.40788 | 38855 ft | 437 kts | 212° |
| 2026-05-05 09:58 | 48.73818 | 2.35794 | 38862 ft | 437 kts | 212° |
| 2026-05-05 09:59 | 48.68721 | 2.30791 | 38856 ft | 437 kts | 212° |
| 2026-05-05 09:59 | 48.63619 | 2.25794 | 38853 ft | 437 kts | 212° |
| 2026-05-05 10:00 | 48.58500 | 2.20818 | 38849 ft | 438 kts | 209° |
| 2026-05-05 10:00 | 48.55708 | 2.19054 | 38823 ft | 434 kts | 193° |
| 2026-05-05 10:00 | 48.52758 | 2.18027 | 38855 ft | 435 kts | 193° |
| 2026-05-05 10:01 | 48.46840 | 2.15982 | 38834 ft | 436 kts | 192° |
| 2026-05-05 10:01 | 48.40951 | 2.14056 | 38832 ft | 437 kts | 192° |
| 2026-05-05 10:02 | 48.34991 | 2.12136 | 38827 ft | 439 kts | 192° |
| 2026-05-05 10:02 | 48.28990 | 2.10394 | 38809 ft | 438 kts | 182° |
| 2026-05-05 10:03 | 48.22946 | 2.11254 | 38808 ft | 439 kts | 173° |
| 2026-05-05 10:03 | 48.16900 | 2.12434 | 38829 ft | 440 kts | 173° |
| 2026-05-05 10:04 | 48.10824 | 2.12580 | 38841 ft | 436 kts | 188° |
| 2026-05-05 10:04 | 48.04765 | 2.11492 | 38815 ft | 439 kts | 187° |
| 2026-05-05 10:05 | 47.98685 | 2.10354 | 38828 ft | 440 kts | 187° |
| 2026-05-05 10:05 | 47.92673 | 2.09207 | 38828 ft | 439 kts | 187° |
| 2026-05-05 10:06 | 47.86613 | 2.08052 | 38830 ft | 439 kts | 187° |
| 2026-05-05 10:06 | 47.80550 | 2.06899 | 38817 ft | 439 kts | 187° |
| 2026-05-05 10:07 | 47.74471 | 2.05745 | 38820 ft | 439 kts | 188° |
| 2026-05-05 10:07 | 47.68425 | 2.04601 | 38821 ft | 438 kts | 188° |
| 2026-05-05 10:08 | 47.62448 | 2.03041 | 38802 ft | 436 kts | 201° |
| 2026-05-05 10:08 | 47.56782 | 1.99788 | 38807 ft | 437 kts | 201° |
| 2026-05-05 10:09 | 47.51112 | 1.96541 | 38842 ft | 437 kts | 201° |
| 2026-05-05 10:09 | 47.45502 | 1.93301 | 38838 ft | 436 kts | 201° |
| 2026-05-05 10:10 | 47.39846 | 1.90038 | 38836 ft | 436 kts | 201° |
| 2026-05-05 10:10 | 47.34185 | 1.86779 | 38856 ft | 436 kts | 201° |
| 2026-05-05 10:11 | 47.28519 | 1.83525 | 38859 ft | 436 kts | 201° |
| 2026-05-05 10:11 | 47.22912 | 1.80312 | 38855 ft | 436 kts | 201° |
| 2026-05-05 10:12 | 47.17255 | 1.77110 | 38863 ft | 436 kts | 201° |
| 2026-05-05 10:12 | 47.11589 | 1.73916 | 38860 ft | 436 kts | 201° |
| 2026-05-05 10:13 | 47.05918 | 1.70726 | 38847 ft | 436 kts | 201° |
| 2026-05-05 10:13 | 47.00267 | 1.67554 | 38879 ft | 436 kts | 201° |
| 2026-05-05 10:14 | 46.94599 | 1.64379 | 38884 ft | 436 kts | 201° |
| 2026-05-05 10:14 | 46.88928 | 1.61211 | 38886 ft | 437 kts | 201° |
| 2026-05-05 10:15 | 46.83278 | 1.58062 | 38883 ft | 437 kts | 201° |
| 2026-05-05 10:15 | 46.77602 | 1.54905 | 38882 ft | 437 kts | 201° |
| 2026-05-05 10:16 | 46.71912 | 1.51747 | 38878 ft | 437 kts | 201° |
| 2026-05-05 10:16 | 46.66222 | 1.48596 | 38872 ft | 437 kts | 201° |
| 2026-05-05 10:17 | 46.60560 | 1.45468 | 38869 ft | 437 kts | 201° |
| 2026-05-05 10:17 | 46.54866 | 1.42329 | 38869 ft | 437 kts | 201° |
| 2026-05-05 10:18 | 46.49187 | 1.39206 | 38872 ft | 436 kts | 201° |
| 2026-05-05 10:18 | 46.43512 | 1.36092 | 38876 ft | 436 kts | 201° |
| 2026-05-05 10:19 | 46.37868 | 1.33002 | 38882 ft | 436 kts | 201° |
| 2026-05-05 10:19 | 46.32188 | 1.29899 | 38880 ft | 436 kts | 201° |
| 2026-05-05 10:20 | 46.26510 | 1.26804 | 38887 ft | 436 kts | 201° |
| 2026-05-05 10:20 | 46.20826 | 1.23712 | 38889 ft | 436 kts | 201° |
| 2026-05-05 10:21 | 46.15176 | 1.20646 | 38896 ft | 436 kts | 201° |
| 2026-05-05 10:21 | 46.09490 | 1.17567 | 38901 ft | 437 kts | 201° |
| 2026-05-05 10:22 | 46.03806 | 1.14496 | 38909 ft | 438 kts | 201° |
| 2026-05-05 10:22 | 45.98089 | 1.11414 | 38912 ft | 438 kts | 201° |
| 2026-05-05 10:23 | 45.92385 | 1.08345 | 38915 ft | 438 kts | 201° |
| 2026-05-05 10:23 | 45.86684 | 1.05283 | 38911 ft | 438 kts | 201° |
| 2026-05-05 10:24 | 45.81156 | 1.01739 | 38887 ft | 435 kts | 217° |
| 2026-05-05 10:24 | 45.76448 | 0.96286 | 38882 ft | 436 kts | 219° |
| 2026-05-05 10:25 | 45.71755 | 0.90752 | 38920 ft | 437 kts | 220° |
| 2026-05-05 10:25 | 45.67121 | 0.85229 | 38922 ft | 436 kts | 220° |
| 2026-05-05 10:26 | 45.62465 | 0.79680 | 38919 ft | 436 kts | 220° |
| 2026-05-05 10:26 | 45.57791 | 0.74121 | 38929 ft | 438 kts | 220° |
| 2026-05-05 10:27 | 45.53111 | 0.68568 | 38930 ft | 437 kts | 220° |
| 2026-05-05 10:27 | 45.48438 | 0.63035 | 38928 ft | 437 kts | 220° |
| 2026-05-05 10:28 | 45.43793 | 0.57548 | 38935 ft | 437 kts | 220° |
| 2026-05-05 10:28 | 45.39111 | 0.52029 | 38935 ft | 437 kts | 220° |
| 2026-05-05 10:29 | 45.34426 | 0.46519 | 38934 ft | 436 kts | 220° |
| 2026-05-05 10:29 | 45.29751 | 0.41034 | 38940 ft | 436 kts | 220° |
| 2026-05-05 10:30 | 45.25075 | 0.35558 | 38939 ft | 436 kts | 220° |
| 2026-05-05 10:30 | 45.20386 | 0.30079 | 38943 ft | 437 kts | 220° |
| 2026-05-05 10:31 | 45.15722 | 0.24643 | 38936 ft | 436 kts | 220° |
| 2026-05-05 10:31 | 45.11033 | 0.19189 | 38942 ft | 436 kts | 219° |
| 2026-05-05 10:32 | 45.06355 | 0.13756 | 38944 ft | 436 kts | 219° |
| 2026-05-05 10:32 | 45.01665 | 0.08327 | 38945 ft | 436 kts | 219° |
| 2026-05-05 10:33 | 44.96967 | 0.02898 | 38927 ft | 435 kts | 220° |
| 2026-05-05 10:33 | 44.92309 | -0.02471 | 38956 ft | 435 kts | 219° |
| 2026-05-05 10:34 | 44.87607 | -0.07882 | 38952 ft | 437 kts | 219° |
| 2026-05-05 10:34 | 44.82904 | -0.13280 | 38945 ft | 436 kts | 219° |
| 2026-05-05 10:35 | 44.78188 | -0.18683 | 38947 ft | 437 kts | 219° |
| 2026-05-05 10:35 | 44.73469 | -0.24077 | 38954 ft | 437 kts | 219° |
| 2026-05-05 10:36 | 44.68749 | -0.29460 | 38959 ft | 437 kts | 219° |
| 2026-05-05 10:36 | 44.63910 | -0.34562 | 38945 ft | 436 kts | 208° |
| 2026-05-05 10:37 | 44.58522 | -0.38518 | 38964 ft | 437 kts | 209° |
| 2026-05-05 10:37 | 44.53138 | -0.42493 | 38945 ft | 437 kts | 209° |
| 2026-05-05 10:38 | 44.47777 | -0.46428 | 38979 ft | 438 kts | 209° |
| 2026-05-05 10:38 | 44.42396 | -0.50370 | 38975 ft | 437 kts | 208° |
| 2026-05-05 10:39 | 44.37004 | -0.54309 | 38958 ft | 436 kts | 209° |
| 2026-05-05 10:39 | 44.31618 | -0.58237 | 38972 ft | 437 kts | 209° |
| 2026-05-05 10:40 | 44.27141 | -0.61495 | 38977 ft | 437 kts | 209° |
| 2026-05-05 10:40 | 44.21767 | -0.65399 | 38973 ft | 437 kts | 209° |
| 2026-05-05 10:41 | 44.16375 | -0.69308 | 38981 ft | 437 kts | 209° |
| 2026-05-05 10:41 | 44.10979 | -0.73212 | 38986 ft | 437 kts | 209° |
| 2026-05-05 10:42 | 44.02882 | -0.79054 | 38990 ft | 438 kts | 209° |
| 2026-05-05 10:43 | 43.97485 | -0.82939 | 38985 ft | 436 kts | 209° |
| 2026-05-05 10:43 | 43.92089 | -0.86814 | 38992 ft | 436 kts | 209° |
| 2026-05-05 10:44 | 43.86709 | -0.90671 | 38995 ft | 436 kts | 209° |
| 2026-05-05 10:44 | 43.81345 | -0.94508 | 39008 ft | 436 kts | 209° |
| 2026-05-05 10:45 | 43.75981 | -0.98337 | 39016 ft | 434 kts | 209° |
| 2026-05-05 10:45 | 43.70612 | -1.02161 | 39024 ft | 434 kts | 209° |
| 2026-05-05 10:46 | 43.65276 | -1.05955 | 39025 ft | 434 kts | 209° |
| 2026-05-05 10:46 | 43.59902 | -1.09768 | 39016 ft | 434 kts | 209° |
| 2026-05-05 10:47 | 43.54537 | -1.13567 | 39007 ft | 434 kts | 209° |
| 2026-05-05 10:47 | 43.49161 | -1.17366 | 39013 ft | 435 kts | 209° |
| 2026-05-05 10:48 | 43.43760 | -1.21175 | 39012 ft | 436 kts | 209° |
| 2026-05-05 10:48 | 43.38399 | -1.24948 | 39013 ft | 434 kts | 209° |
| 2026-05-05 10:49 | 43.33043 | -1.28710 | 39017 ft | 433 kts | 209° |
| 2026-05-05 10:49 | 43.27672 | -1.32475 | 39018 ft | 433 kts | 209° |
| 2026-05-05 10:50 | 43.22295 | -1.36238 | 39007 ft | 433 kts | 209° |
| 2026-05-05 10:50 | 43.16933 | -1.39983 | 39020 ft | 432 kts | 209° |
| 2026-05-05 10:51 | 43.11622 | -1.43686 | 39010 ft | 432 kts | 209° |
| 2026-05-05 10:51 | 43.06263 | -1.47416 | 39001 ft | 432 kts | 209° |
| 2026-05-05 10:52 | 43.00911 | -1.51142 | 38997 ft | 432 kts | 209° |
| 2026-05-05 10:52 | 42.95566 | -1.54856 | 39007 ft | 431 kts | 209° |
| 2026-05-05 10:53 | 42.90242 | -1.58549 | 39007 ft | 434 kts | 209° |
| 2026-05-05 10:53 | 42.84867 | -1.62270 | 39017 ft | 433 kts | 209° |
| 2026-05-05 10:54 | 42.79491 | -1.65983 | 39019 ft | 433 kts | 209° |
| 2026-05-05 10:54 | 42.74107 | -1.69693 | 38686 ft | 433 kts | 209° |
| 2026-05-05 10:54 | 42.71415 | -1.71507 | 38189 ft | 430 kts | 208° |
| 2026-05-05 10:55 | 42.68733 | -1.73314 | 37696 ft | 429 kts | 209° |
| 2026-05-05 10:55 | 42.66076 | -1.75105 | 37225 ft | 428 kts | 209° |
| 2026-05-05 10:55 | 42.63404 | -1.76903 | 36753 ft | 428 kts | 209° |
| 2026-05-05 10:55 | 42.60736 | -1.78698 | 36296 ft | 427 kts | 209° |
| 2026-05-05 10:56 | 42.58072 | -1.80488 | 35837 ft | 426 kts | 209° |
| 2026-05-05 10:56 | 42.55418 | -1.82270 | 35390 ft | 425 kts | 209° |
| 2026-05-05 10:56 | 42.52762 | -1.84051 | 34949 ft | 425 kts | 209° |
| 2026-05-05 10:56 | 42.50113 | -1.85826 | 34527 ft | 424 kts | 210° |
| 2026-05-05 10:57 | 42.47470 | -1.87595 | 34123 ft | 424 kts | 210° |
| 2026-05-05 10:57 | 42.44869 | -1.89334 | 33638 ft | 423 kts | 210° |
| 2026-05-05 10:57 | 42.42221 | -1.91102 | 33176 ft | 424 kts | 209° |
| 2026-05-05 10:57 | 42.39574 | -1.92866 | 32698 ft | 425 kts | 209° |
| 2026-05-05 10:58 | 42.36915 | -1.94638 | 32208 ft | 424 kts | 209° |
| 2026-05-05 10:58 | 42.34266 | -1.96402 | 31749 ft | 424 kts | 209° |
| 2026-05-05 10:58 | 42.31626 | -1.98161 | 31287 ft | 424 kts | 209° |
| 2026-05-05 10:58 | 42.28981 | -1.99922 | 30835 ft | 424 kts | 209° |
| 2026-05-05 10:59 | 42.26327 | -2.01682 | 30389 ft | 424 kts | 209° |
| 2026-05-05 10:59 | 42.23693 | -2.03425 | 29937 ft | 418 kts | 209° |
| 2026-05-05 10:59 | 42.21118 | -2.05128 | 29404 ft | 411 kts | 209° |
| 2026-05-05 10:59 | 42.18562 | -2.06817 | 28870 ft | 407 kts | 208° |
| 2026-05-05 11:00 | 42.16066 | -2.08468 | 28341 ft | 403 kts | 209° |
| 2026-05-05 11:00 | 42.13557 | -2.10124 | 27860 ft | 399 kts | 209° |
| 2026-05-05 11:00 | 42.11074 | -2.11763 | 27357 ft | 396 kts | 209° |
| 2026-05-05 11:00 | 42.08611 | -2.13387 | 26870 ft | 393 kts | 209° |
| 2026-05-05 11:01 | 42.06159 | -2.15002 | 26392 ft | 391 kts | 209° |
| 2026-05-05 11:01 | 42.03723 | -2.16606 | 25919 ft | 389 kts | 209° |
| 2026-05-05 11:01 | 42.01297 | -2.18200 | 25465 ft | 387 kts | 208° |
| 2026-05-05 11:01 | 41.98890 | -2.19782 | 25002 ft | 385 kts | 208° |
| 2026-05-05 11:02 | 41.96486 | -2.21361 | 24528 ft | 383 kts | 209° |
| 2026-05-05 11:02 | 41.94104 | -2.22924 | 24089 ft | 378 kts | 209° |
| 2026-05-05 11:02 | 41.91747 | -2.24468 | 23660 ft | 375 kts | 209° |
| 2026-05-05 11:02 | 41.89411 | -2.25998 | 23170 ft | 372 kts | 208° |
| 2026-05-05 11:03 | 41.87088 | -2.27518 | 22647 ft | 370 kts | 208° |
| 2026-05-05 11:03 | 41.84782 | -2.29026 | 22138 ft | 368 kts | 208° |
| 2026-05-05 11:03 | 41.82474 | -2.30534 | 21635 ft | 370 kts | 208° |
| 2026-05-05 11:03 | 41.80195 | -2.32021 | 21135 ft | 369 kts | 208° |
| 2026-05-05 11:04 | 41.77898 | -2.33520 | 20650 ft | 368 kts | 208° |
| 2026-05-05 11:04 | 41.75605 | -2.35014 | 20162 ft | 366 kts | 208° |
| 2026-05-05 11:04 | 41.73320 | -2.36502 | 19668 ft | 364 kts | 208° |
| 2026-05-05 11:04 | 41.71053 | -2.37978 | 19205 ft | 361 kts | 208° |
| 2026-05-05 11:05 | 41.68798 | -2.39443 | 18734 ft | 360 kts | 208° |
| 2026-05-05 11:05 | 41.66554 | -2.40901 | 18273 ft | 358 kts | 208° |
| 2026-05-05 11:05 | 41.64319 | -2.42352 | 17752 ft | 357 kts | 208° |
| 2026-05-05 11:05 | 41.62089 | -2.43799 | 17229 ft | 355 kts | 208° |
| 2026-05-05 11:06 | 41.59870 | -2.45237 | 16721 ft | 354 kts | 208° |
| 2026-05-05 11:06 | 41.57650 | -2.46675 | 16220 ft | 353 kts | 208° |
| 2026-05-05 11:06 | 41.55448 | -2.48100 | 15731 ft | 352 kts | 208° |
| 2026-05-05 11:06 | 41.53240 | -2.49528 | 15234 ft | 352 kts | 208° |
| 2026-05-05 11:07 | 41.51052 | -2.50943 | 14987 ft | 344 kts | 208° |
| 2026-05-05 11:07 | 41.48912 | -2.52342 | 14980 ft | 343 kts | 208° |
| 2026-05-05 11:07 | 41.46801 | -2.53729 | 14982 ft | 343 kts | 208° |
| 2026-05-05 11:07 | 41.44657 | -2.55137 | 14981 ft | 343 kts | 208° |
| 2026-05-05 11:08 | 41.42514 | -2.56543 | 14981 ft | 343 kts | 208° |
| 2026-05-05 11:08 | 41.40371 | -2.57947 | 14983 ft | 343 kts | 208° |
| 2026-05-05 11:08 | 41.38228 | -2.59352 | 14986 ft | 343 kts | 208° |
| 2026-05-05 11:08 | 41.36085 | -2.60754 | 14989 ft | 343 kts | 208° |
| 2026-05-05 11:09 | 41.33940 | -2.62153 | 14983 ft | 343 kts | 208° |
| 2026-05-05 11:09 | 41.31811 | -2.63542 | 14981 ft | 343 kts | 208° |
| 2026-05-05 11:09 | 41.29665 | -2.64937 | 14978 ft | 344 kts | 208° |
| 2026-05-05 11:09 | 41.27509 | -2.66335 | 14985 ft | 344 kts | 208° |
| 2026-05-05 11:10 | 41.25355 | -2.67733 | 14980 ft | 345 kts | 208° |
| 2026-05-05 11:10 | 41.23223 | -2.69116 | 14987 ft | 346 kts | 208° |
| 2026-05-05 11:10 | 41.21058 | -2.70524 | 14987 ft | 347 kts | 208° |
| 2026-05-05 11:10 | 41.18884 | -2.71933 | 14989 ft | 346 kts | 208° |
| 2026-05-05 11:11 | 41.16719 | -2.73339 | 14985 ft | 346 kts | 208° |
| 2026-05-05 11:11 | 41.14555 | -2.74741 | 14995 ft | 346 kts | 208° |
| 2026-05-05 11:11 | 41.12392 | -2.76145 | 15001 ft | 346 kts | 208° |
| 2026-05-05 11:11 | 41.10232 | -2.77541 | 14987 ft | 346 kts | 208° |
| 2026-05-05 11:12 | 41.08068 | -2.78935 | 14981 ft | 346 kts | 208° |
| 2026-05-05 11:12 | 41.05897 | -2.80329 | 14984 ft | 346 kts | 208° |
| 2026-05-05 11:12 | 41.03731 | -2.81726 | 14986 ft | 346 kts | 208° |
| 2026-05-05 11:12 | 41.01562 | -2.83120 | 14986 ft | 346 kts | 208° |
| 2026-05-05 11:13 | 40.99397 | -2.84512 | 14984 ft | 346 kts | 208° |
| 2026-05-05 11:13 | 40.97231 | -2.85902 | 14982 ft | 346 kts | 208° |
| 2026-05-05 11:13 | 40.95093 | -2.87274 | 14988 ft | 346 kts | 208° |
| 2026-05-05 11:13 | 40.92928 | -2.88663 | 14989 ft | 346 kts | 208° |
| 2026-05-05 11:14 | 40.90761 | -2.90052 | 14727 ft | 347 kts | 208° |
| 2026-05-05 11:14 | 40.88574 | -2.91457 | 14102 ft | 351 kts | 208° |
| 2026-05-05 11:14 | 40.86391 | -2.92876 | 13573 ft | 351 kts | 208° |
| 2026-05-05 11:14 | 40.84212 | -2.94294 | 13171 ft | 346 kts | 208° |
| 2026-05-05 11:15 | 40.82062 | -2.95695 | 12803 ft | 342 kts | 208° |
| 2026-05-05 11:15 | 40.79939 | -2.97078 | 12408 ft | 338 kts | 208° |
| 2026-05-05 11:15 | 40.77866 | -2.98428 | 12040 ft | 335 kts | 208° |
| 2026-05-05 11:15 | 40.75760 | -2.99801 | 11665 ft | 332 kts | 208° |
| 2026-05-05 11:16 | 40.73724 | -3.01126 | 11300 ft | 330 kts | 208° |
| 2026-05-05 11:16 | 40.71672 | -3.02466 | 10941 ft | 328 kts | 208° |
| 2026-05-05 11:16 | 40.69636 | -3.03797 | 10584 ft | 326 kts | 208° |
| 2026-05-05 11:16 | 40.67612 | -3.05128 | 10212 ft | 324 kts | 208° |
| 2026-05-05 11:17 | 40.65619 | -3.06444 | 9924 ft | 318 kts | 208° |
| 2026-05-05 11:17 | 40.63682 | -3.07726 | 9583 ft | 306 kts | 208° |
| 2026-05-05 11:17 | 40.61822 | -3.08955 | 9394 ft | 291 kts | 208° |
| 2026-05-05 11:17 | 40.60058 | -3.10115 | 9264 ft | 279 kts | 208° |
| 2026-05-05 11:18 | 40.58329 | -3.11242 | 9149 ft | 277 kts | 207° |
| 2026-05-05 11:18 | 40.56468 | -3.11878 | 8986 ft | 280 kts | 184° |
| 2026-05-05 11:18 | 40.54514 | -3.11694 | 8849 ft | 283 kts | 176° |
| 2026-05-05 11:18 | 40.52550 | -3.11373 | 8517 ft | 285 kts | 175° |
| 2026-05-05 11:19 | 40.50578 | -3.11054 | 8158 ft | 286 kts | 175° |
| 2026-05-05 11:19 | 40.48629 | -3.10731 | 8019 ft | 279 kts | 175° |
| 2026-05-05 11:19 | 40.46699 | -3.10422 | 8011 ft | 280 kts | 175° |
| 2026-05-05 11:19 | 40.44799 | -3.10124 | 8028 ft | 268 kts | 175° |
| 2026-05-05 11:20 | 40.42989 | -3.09821 | 8013 ft | 256 kts | 175° |
| 2026-05-05 11:20 | 40.41256 | -3.09518 | 8022 ft | 248 kts | 175° |
| 2026-05-05 11:20 | 40.39564 | -3.09436 | 7964 ft | 243 kts | 189° |
| 2026-05-05 11:20 | 40.37891 | -3.09722 | 8000 ft | 242 kts | 192° |
| 2026-05-05 11:21 | 40.36232 | -3.10108 | 7998 ft | 242 kts | 195° |
| 2026-05-05 11:21 | 40.34587 | -3.10572 | 7998 ft | 242 kts | 196° |
| 2026-05-05 11:21 | 40.32952 | -3.11090 | 7995 ft | 242 kts | 197° |
| 2026-05-05 11:21 | 40.31328 | -3.11639 | 7987 ft | 241 kts | 197° |
| 2026-05-05 11:22 | 40.29708 | -3.12211 | 7988 ft | 241 kts | 198° |
| 2026-05-05 11:22 | 40.28133 | -3.12925 | 7973 ft | 237 kts | 214° |
| 2026-05-05 11:22 | 40.27005 | -3.14380 | 7975 ft | 232 kts | 241° |
| 2026-05-05 11:22 | 40.26510 | -3.16349 | 7866 ft | 227 kts | 264° |
| 2026-05-05 11:23 | 40.26598 | -3.18420 | 7485 ft | 229 kts | 276° |
| 2026-05-05 11:23 | 40.26817 | -3.20491 | 7129 ft | 230 kts | 277° |
| 2026-05-05 11:23 | 40.27054 | -3.22532 | 7023 ft | 224 kts | 277° |
| 2026-05-05 11:23 | 40.27294 | -3.24514 | 7026 ft | 219 kts | 278° |
| 2026-05-05 11:24 | 40.27541 | -3.26494 | 7009 ft | 220 kts | 278° |
| 2026-05-05 11:24 | 40.27790 | -3.28459 | 7007 ft | 219 kts | 278° |
| 2026-05-05 11:24 | 40.28039 | -3.30396 | 6855 ft | 213 kts | 278° |
| 2026-05-05 11:24 | 40.28403 | -3.32295 | 6375 ft | 219 kts | 295° |
| 2026-05-05 11:25 | 40.29288 | -3.33898 | 6101 ft | 216 kts | 306° |
| 2026-05-05 11:25 | 40.30235 | -3.35438 | 5989 ft | 219 kts | 305° |
| 2026-05-05 11:25 | 40.31192 | -3.36945 | 5717 ft | 219 kts | 311° |
| 2026-05-05 11:25 | 40.32298 | -3.38279 | 5488 ft | 212 kts | 317° |
| 2026-05-05 11:26 | 40.33403 | -3.39452 | 5309 ft | 198 kts | 318° |
| 2026-05-05 11:26 | 40.34468 | -3.40536 | 5076 ft | 188 kts | 319° |
| 2026-05-05 11:26 | 40.35469 | -3.41550 | 4861 ft | 179 kts | 318° |
| 2026-05-05 11:26 | 40.36429 | -3.42524 | 4640 ft | 170 kts | 319° |
| 2026-05-05 11:27 | 40.37347 | -3.43457 | 4425 ft | 164 kts | 319° |
| 2026-05-05 11:27 | 40.38249 | -3.44372 | 4220 ft | 163 kts | 318° |
| 2026-05-05 11:27 | 40.39138 | -3.45276 | 4007 ft | 161 kts | 319° |
| 2026-05-05 11:27 | 40.40027 | -3.46176 | 3794 ft | 162 kts | 320° |
| 2026-05-05 11:28 | 40.40921 | -3.47081 | 3594 ft | 158 kts | 317° |
| 2026-05-05 11:28 | 40.41770 | -3.47948 | 3397 ft | 152 kts | 317° |
| 2026-05-05 11:28 | 40.42589 | -3.48782 | 3147 ft | 152 kts | 320° |
| 2026-05-05 11:28 | 40.43471 | -3.49678 | 2990 ft | 162 kts | 321° |
| 2026-05-05 11:29 | 40.44356 | -3.50561 | 2757 ft | 161 kts | 320° |
| 2026-05-05 11:29 | 40.45225 | -3.51480 | 2468 ft | 161 kts | 321° |
| 2026-05-05 11:29 | 40.46106 | -3.52372 | 2218 ft | 156 kts | 320° |
| 2026-05-05 11:29 | 40.46945 | -3.53224 | 2040 ft | 153 kts | 320° |
| 2026-05-05 11:30 | 40.47773 | -3.54052 | 1928 ft | 141 kts | 322° |
| 2026-05-05 11:30 | 40.48370 | -3.54653 | 1938 ft | 73 kts | 323° |
| 2026-05-05 11:30 | 40.48551 | -3.54832 | 1945 ft | 34 kts | 323° |
| 2026-05-05 11:30 | 40.48718 | -3.54998 | 1951 ft | 19 kts | 317° |
| 2026-05-05 11:31 | 40.48783 | -3.55147 | 1954 ft | 19 kts | 293° |
| 2026-05-05 11:31 | 40.48832 | -3.55309 | 1954 ft | 18 kts | 290° |
| 2026-05-05 11:31 | 40.48889 | -3.55453 | 1955 ft | 17 kts | 313° |
| 2026-05-05 11:31 | 40.48980 | -3.55551 | 1956 ft | 18 kts | 321° |
| 2026-05-05 11:32 | 40.49080 | -3.55655 | 1958 ft | 18 kts | 322° |
| 2026-05-05 11:32 | 40.49169 | -3.55745 | 1962 ft | 16 kts | 321° |
| 2026-05-05 11:32 | 40.49258 | -3.55838 | 1963 ft | 16 kts | 321° |
| 2026-05-05 11:32 | 40.49301 | -3.55934 | 1962 ft | 12 kts | 269° |
| 2026-05-05 11:33 | 40.49299 | -3.56055 | 1961 ft | 15 kts | 269° |
| 2026-05-05 11:33 | 40.49294 | -3.56177 | 1962 ft | 11 kts | 267° |
| 2026-05-05 11:33 | 40.49258 | -3.56246 | 1964 ft | 10 kts | 191° |
| 2026-05-05 11:33 | 40.49184 | -3.56245 | 1964 ft | 12 kts | 179° |
| 2026-05-05 11:34 | 40.49097 | -3.56244 | 1964 ft | 14 kts | 179° |
| 2026-05-05 11:34 | 40.48995 | -3.56243 | 1964 ft | 15 kts | 180° |
| 2026-05-05 11:34 | 40.48900 | -3.56245 | 1964 ft | 12 kts | 188° |
| 2026-05-05 11:34 | 40.48863 | -3.56330 | 1966 ft | 11 kts | 270° |
| 2026-05-05 11:35 | 40.48863 | -3.56430 | 1972 ft | 11 kts | 269° |
| 2026-05-05 11:35 | 40.48862 | -3.56523 | 1972 ft | 10 kts | 269° |
| 2026-05-05 11:35 | 40.48861 | -3.56610 | 1974 ft | 9 kts | 269° |
| 2026-05-05 11:35 | 40.48861 | -3.56690 | 1976 ft | 8 kts | 270° |
| 2026-05-05 11:36 | 40.48861 | -3.56772 | 1977 ft | 11 kts | 270° |
| 2026-05-05 11:36 | 40.48861 | -3.56878 | 1979 ft | 12 kts | 270° |
| 2026-05-05 11:36 | 40.48861 | -3.56995 | 1981 ft | 13 kts | 270° |
| 2026-05-05 11:36 | 40.48861 | -3.57118 | 1984 ft | 14 kts | 270° |
| 2026-05-05 11:37 | 40.48860 | -3.57246 | 1986 ft | 14 kts | 270° |
| 2026-05-05 11:37 | 40.48860 | -3.57380 | 1988 ft | 15 kts | 270° |
| 2026-05-05 11:37 | 40.48860 | -3.57519 | 1991 ft | 16 kts | 269° |
| 2026-05-05 11:37 | 40.48859 | -3.57665 | 1993 ft | 16 kts | 269° |
| 2026-05-05 11:38 | 40.48858 | -3.57814 | 1997 ft | 16 kts | 269° |
| 2026-05-05 11:38 | 40.48857 | -3.57949 | 2002 ft | 14 kts | 269° |
| 2026-05-05 11:38 | 40.48842 | -3.58037 | 2004 ft | 8 kts | 213° |
| 2026-05-05 11:38 | 40.48784 | -3.58049 | 2005 ft | 9 kts | 181° |
| 2026-05-05 11:39 | 40.48699 | -3.58049 | 2004 ft | 16 kts | 179° |
| 2026-05-05 11:39 | 40.48581 | -3.58037 | 2005 ft | 18 kts | 161° |
| 2026-05-05 11:39 | 40.48457 | -3.57937 | 1995 ft | 24 kts | 147° |
| 2026-05-05 11:39 | 40.48308 | -3.57806 | 1995 ft | 27 kts | 141° |
| 2026-05-05 11:40 | 40.48163 | -3.57657 | 2000 ft | 26 kts | 143° |
| 2026-05-05 11:40 | 40.48020 | -3.57514 | 2004 ft | 26 kts | 141° |
| 2026-05-05 11:40 | 40.47879 | -3.57369 | 2005 ft | 26 kts | 142° |
| 2026-05-05 11:40 | 40.47744 | -3.57232 | 2003 ft | 23 kts | 142° |
| 2026-05-05 11:41 | 40.47607 | -3.57093 | 1998 ft | 27 kts | 142° |
| 2026-05-05 11:41 | 40.47493 | -3.56977 | 1994 ft | 16 kts | 142° |
| 2026-05-05 11:41 | 40.47412 | -3.56894 | 1991 ft | 11 kts | 142° |
| 2026-05-05 11:41 | 40.47342 | -3.56850 | 1990 ft | 8 kts | 190° |
| 2026-05-05 11:42 | 40.47300 | -3.56898 | 1990 ft | 8 kts | 225° |
| 2026-05-05 11:42 | 40.47280 | -3.56936 | 1990 ft | 3 kts | 252° |
| 2026-05-05 11:42 | 40.47276 | -3.56973 | 1990 ft | 5 kts | 262° |
| 2026-05-05 11:42 | 40.47274 | -3.56996 | 1990 ft | 1 kts | 262° |
| 2026-05-05 11:43 | 40.47272 | -3.57010 | 1990 ft | 2 kts | 262° |
| 2026-05-05 11:43 | 40.47272 | -3.57015 | 1990 ft | 0 kts | 262° |